createdAt,value
2018-01-15T00:01:18.279Z,14.43
2018-01-15T00:03:46.642Z,19.10
2018-01-15T00:06:15.040Z,16.77
2018-01-15T00:08:43.412Z,19.73
2018-01-15T00:11:11.793Z,21.00
2018-01-15T00:13:40.176Z,16.97
2018-01-15T00:16:08.550Z,16.80
2018-01-15T00:18:36.949Z,14.40
2018-01-15T00:21:05.342Z,30.40
2018-01-15T00:23:34.487Z,9.83
2018-01-15T00:26:02.860Z,10.20
2018-01-15T00:28:31.262Z,10.90
2018-01-15T00:30:59.638Z,20.27
2018-01-15T00:33:28.007Z,27.00
2018-01-15T00:35:56.412Z,11.03
2018-01-15T00:38:24.771Z,13.23
2018-01-15T00:40:53.131Z,7.80
2018-01-15T00:43:21.510Z,12.47
2018-01-15T00:45:49.891Z,14.80
2018-01-15T00:48:18.274Z,19.83
2018-01-15T00:50:47.428Z,13.43
2018-01-15T00:53:15.811Z,10.60
2018-01-15T00:55:44.241Z,12.87
2018-01-15T00:58:12.624Z,15.23
2018-01-15T01:00:40.992Z,6.33
2018-01-15T01:03:09.372Z,20.33
2018-01-15T01:05:37.755Z,15.77
2018-01-15T01:08:06.119Z,9.10
2018-01-15T01:10:34.488Z,8.87
2018-01-15T01:13:02.887Z,10.67
2018-01-15T01:15:32.017Z,9.80
2018-01-15T01:18:01.594Z,14.00
2018-01-15T01:20:29.973Z,20.60
2018-01-15T01:22:58.337Z,13.43
2018-01-15T01:25:26.707Z,18.17
2018-01-15T01:27:55.087Z,14.93
2018-01-15T01:30:23.463Z,8.27
2018-01-15T01:32:51.824Z,7.40
2018-01-15T01:35:20.218Z,20.33
2018-01-15T01:37:48.682Z,16.43
2018-01-15T01:40:17.042Z,13.87
2018-01-15T01:42:45.426Z,10.03
2018-01-15T01:45:14.936Z,9.13
2018-01-15T01:47:43.352Z,16.67
2018-01-15T01:50:11.736Z,16.40
2018-01-15T01:52:40.099Z,13.70
2018-01-15T01:55:08.464Z,14.13
2018-01-15T01:57:36.875Z,12.33
2018-01-15T02:00:05.717Z,10.77
2018-01-15T02:02:34.078Z,13.63
2018-01-15T02:05:03.234Z,7.13
2018-01-15T02:07:31.605Z,17.40
2018-01-15T02:09:59.971Z,24.97
2018-01-15T02:12:28.371Z,18.20
2018-01-15T02:14:56.735Z,25.20
2018-01-15T02:17:25.103Z,20.60
2018-01-15T02:19:53.532Z,14.77
2018-01-15T02:22:22.991Z,16.50
2018-01-15T02:24:51.350Z,15.67
2018-01-15T02:27:19.395Z,18.70
2018-01-15T02:29:47.783Z,8.33
2018-01-15T02:32:16.148Z,15.93
2018-01-15T02:34:44.538Z,8.50
2018-01-15T02:37:12.912Z,13.47
2018-01-15T02:39:41.276Z,11.87
2018-01-15T02:42:10.437Z,15.93
2018-01-15T02:44:38.812Z,12.80
2018-01-15T02:47:07.219Z,9.17
2018-01-15T02:49:36.406Z,12.30
2018-01-15T02:52:04.443Z,15.60
2018-01-15T02:54:33.576Z,12.77
2018-01-15T02:57:01.960Z,18.13
2018-01-15T02:59:30.323Z,17.07
2018-01-15T03:01:58.727Z,10.30
2018-01-15T03:04:27.907Z,6.47
2018-01-15T03:06:56.291Z,12.30
2018-01-15T03:09:26.127Z,16.53
2018-01-15T03:11:54.512Z,17.30
2018-01-15T03:14:22.880Z,15.20
2018-01-15T03:16:52.011Z,16.60
2018-01-15T03:19:20.407Z,11.70
2018-01-15T03:21:49.536Z,8.13
2018-01-15T03:24:18.671Z,11.40
2018-01-15T03:26:47.063Z,13.07
2018-01-15T03:29:15.413Z,9.83
2018-01-15T03:31:43.806Z,15.17
2018-01-15T03:34:12.192Z,15.73
2018-01-15T03:36:40.552Z,8.30
2018-01-15T03:39:08.936Z,20.23
2018-01-15T03:41:37.151Z,22.17
2018-01-15T03:44:05.522Z,13.20
2018-01-15T03:46:33.886Z,9.73
2018-01-15T03:49:02.286Z,15.30
2018-01-15T03:51:30.660Z,17.53
2018-01-15T03:53:59.020Z,17.13
2018-01-15T03:56:27.400Z,17.57
2018-01-15T03:58:55.763Z,8.53
2018-01-15T04:01:24.238Z,18.57
2018-01-15T04:03:52.627Z,12.43
2018-01-15T04:06:20.995Z,14.50
2018-01-15T04:08:49.355Z,8.67
2018-01-15T04:11:17.744Z,17.70
2018-01-15T04:13:46.100Z,10.53
2018-01-15T04:16:14.504Z,19.30
2018-01-15T04:18:42.883Z,8.97
2018-01-15T04:21:11.288Z,13.77
2018-01-15T04:23:39.652Z,15.97
2018-01-15T04:26:08.031Z,7.50
2018-01-15T04:28:36.395Z,11.00
2018-01-15T04:31:04.758Z,18.90
2018-01-15T04:33:33.144Z,12.57
2018-01-15T04:36:01.315Z,14.63
2018-01-15T04:38:29.689Z,18.50
2018-01-15T04:40:57.892Z,12.30
2018-01-15T04:43:26.255Z,14.00
2018-01-15T04:45:54.610Z,9.23
2018-01-15T04:48:23.010Z,12.03
2018-01-15T04:50:51.182Z,7.23
2018-01-15T04:53:20.310Z,13.33
2018-01-15T04:55:48.700Z,17.20
2018-01-15T04:58:17.079Z,11.47
2018-01-15T05:00:45.124Z,11.57
2018-01-15T05:03:13.503Z,6.70
2018-01-15T05:05:44.425Z,8.90
2018-01-15T05:08:12.800Z,8.70
2018-01-15T05:10:41.379Z,8.47
2018-01-15T05:13:09.743Z,4.70
2018-01-15T05:15:38.904Z,14.07
2018-01-15T05:18:07.291Z,12.20
2018-01-15T05:20:35.675Z,14.83
2018-01-15T05:23:04.847Z,5.03
2018-01-15T05:25:34.351Z,11.83
2018-01-15T05:28:02.716Z,17.20
2018-01-15T05:30:31.125Z,10.57
2018-01-15T05:32:59.505Z,9.33
2018-01-15T05:35:29.021Z,11.27
2018-01-15T05:37:58.171Z,9.97
2018-01-15T05:40:26.529Z,9.83
2018-01-15T05:42:54.906Z,7.47
2018-01-15T05:45:23.292Z,8.50
2018-01-15T05:47:51.647Z,3.60
2018-01-15T05:50:20.023Z,12.17
2018-01-15T05:52:48.591Z,7.40
2018-01-15T05:55:17.791Z,10.90
2018-01-15T05:57:46.769Z,10.30
2018-01-15T06:00:15.326Z,8.77
2018-01-15T06:02:43.699Z,13.00
2018-01-15T06:05:12.069Z,18.77
2018-01-15T06:07:40.466Z,5.77
2018-01-15T06:10:08.841Z,14.37
2018-01-15T06:12:37.218Z,8.70
2018-01-15T06:15:05.595Z,4.50
2018-01-15T06:17:34.165Z,7.37
2018-01-15T06:20:02.543Z,10.70
2018-01-15T06:22:30.939Z,6.30
2018-01-15T06:24:59.299Z,8.23
2018-01-15T06:27:27.665Z,8.57
2018-01-15T06:29:56.049Z,13.43
2018-01-15T06:32:24.415Z,13.93
2018-01-15T06:34:52.785Z,8.73
2018-01-15T06:37:21.159Z,7.90
2018-01-15T06:39:49.725Z,11.73
2018-01-15T06:42:18.852Z,7.80
2018-01-15T06:44:48.268Z,9.23
2018-01-15T06:47:16.623Z,6.80
2018-01-15T06:49:44.983Z,8.30
2018-01-15T06:52:14.169Z,7.97
2018-01-15T06:54:42.560Z,6.40
2018-01-15T06:57:10.935Z,7.60
2018-01-15T06:59:40.098Z,6.30
2018-01-15T07:02:08.476Z,15.13
2018-01-15T07:04:36.861Z,12.13
2018-01-15T07:07:05.255Z,7.87
2018-01-15T07:09:34.393Z,11.03
2018-01-15T07:12:02.766Z,6.80
2018-01-15T07:14:31.159Z,8.27
2018-01-15T07:16:59.529Z,11.10
2018-01-15T07:19:27.904Z,8.13
2018-01-15T07:21:56.315Z,12.83
2018-01-15T07:24:24.686Z,6.63
2018-01-15T07:26:53.787Z,11.33
2018-01-15T07:29:22.177Z,10.37
2018-01-15T07:31:50.565Z,4.97
2018-01-15T07:34:19.002Z,12.90
2018-01-15T07:36:47.385Z,10.47
2018-01-15T07:39:16.598Z,4.73
2018-01-15T07:41:44.972Z,5.30
2018-01-15T07:44:13.364Z,7.47
2018-01-15T07:46:41.735Z,3.43
2018-01-15T07:49:10.105Z,7.93
2018-01-15T07:51:38.508Z,5.73
2018-01-15T07:54:07.639Z,9.17
2018-01-15T07:56:36.030Z,5.40
2018-01-15T07:59:04.427Z,17.83
2018-01-15T08:01:32.794Z,7.70
2018-01-15T08:04:01.194Z,6.57
2018-01-15T08:06:29.629Z,7.20
2018-01-15T08:08:57.991Z,4.70
2018-01-15T08:11:27.126Z,5.00
2018-01-15T08:13:55.526Z,4.43
2018-01-15T08:16:23.883Z,5.30
2018-01-15T08:18:52.053Z,8.63
2018-01-15T08:21:20.457Z,5.50
2018-01-15T08:23:48.824Z,5.80
2018-01-15T08:26:17.286Z,6.20
2018-01-15T08:28:45.972Z,4.90
2018-01-15T08:31:14.338Z,6.83
2018-01-15T08:33:42.715Z,7.60
2018-01-15T08:36:11.101Z,10.03
2018-01-15T08:38:42.437Z,8.97
2018-01-15T08:41:10.860Z,6.20
2018-01-15T08:43:39.243Z,5.70
2018-01-15T08:46:07.611Z,5.27
2018-01-15T08:48:35.992Z,9.70
2018-01-15T08:51:04.387Z,5.70
2018-01-15T08:53:32.863Z,6.40
2018-01-15T08:56:01.275Z,5.07
2018-01-15T08:58:30.400Z,6.10
2018-01-15T09:00:58.780Z,5.13
2018-01-15T09:03:27.951Z,6.30
2018-01-15T09:05:56.892Z,11.80
2018-01-15T09:08:26.268Z,7.37
2018-01-15T09:10:54.656Z,7.80
2018-01-15T09:13:23.040Z,8.73
2018-01-15T09:15:51.475Z,3.20
2018-01-15T09:18:20.722Z,8.57
2018-01-15T09:20:49.093Z,12.83
2018-01-15T09:23:17.457Z,5.30
2018-01-15T09:25:45.844Z,4.97
2018-01-15T09:28:14.219Z,7.60
2018-01-15T09:30:42.600Z,11.00
2018-01-15T09:33:13.476Z,5.10
2018-01-15T09:35:41.887Z,3.97
2018-01-15T09:38:10.264Z,9.10
2018-01-15T09:40:39.453Z,3.07
2018-01-15T09:43:08.582Z,10.03
2018-01-15T09:45:36.956Z,4.40
2018-01-15T09:48:05.343Z,6.33
2018-01-15T09:50:33.511Z,10.80
2018-01-15T09:53:01.956Z,3.77
2018-01-15T09:55:30.402Z,6.17
2018-01-15T09:57:58.949Z,10.07
2018-01-15T10:00:27.320Z,6.63
2018-01-15T10:02:55.717Z,8.00
2018-01-15T10:05:24.081Z,8.70
2018-01-15T10:07:52.469Z,6.20
2018-01-15T10:10:20.886Z,5.53
2018-01-15T10:12:49.456Z,7.93
2018-01-15T10:15:17.827Z,13.53
2018-01-15T10:17:46.207Z,8.67
2018-01-15T10:20:14.631Z,9.10
2018-01-15T10:22:44.155Z,8.60
2018-01-15T10:25:12.541Z,6.93
2018-01-15T10:27:41.933Z,3.80
2018-01-15T10:30:10.309Z,9.60
2018-01-15T10:32:38.705Z,11.10
2018-01-15T10:35:08.238Z,15.23
2018-01-15T10:37:36.600Z,7.53
2018-01-15T10:40:04.990Z,8.73
2018-01-15T10:42:33.357Z,5.07
2018-01-15T10:45:01.728Z,9.73
2018-01-15T10:47:30.122Z,13.53
2018-01-15T10:49:58.487Z,5.90
2018-01-15T10:52:26.876Z,10.60
2018-01-15T10:54:55.269Z,11.80
2018-01-15T10:57:23.646Z,7.37
2018-01-15T10:59:52.088Z,10.37
2018-01-15T11:02:20.500Z,8.43
2018-01-15T11:04:50.359Z,8.03
2018-01-15T11:07:18.718Z,8.20
2018-01-15T11:09:47.961Z,6.70
2018-01-15T11:12:16.327Z,3.40
2018-01-15T11:14:44.733Z,12.93
2018-01-15T11:17:12.988Z,6.00
2018-01-15T11:19:41.374Z,13.23
2018-01-15T11:22:09.751Z,4.70
2018-01-15T11:24:38.158Z,5.50
2018-01-15T11:27:06.536Z,6.23
2018-01-15T11:29:34.897Z,8.23
2018-01-15T11:32:04.423Z,5.43
2018-01-15T11:34:32.527Z,4.00
2018-01-15T11:37:00.957Z,2.97
2018-01-15T11:39:30.887Z,3.40
2018-01-15T11:41:58.999Z,3.73
2018-01-15T11:44:28.124Z,3.90
2018-01-15T11:46:56.567Z,4.23
2018-01-15T11:49:25.706Z,3.00
2018-01-15T11:51:54.089Z,3.37
2018-01-15T11:54:22.563Z,4.50
2018-01-15T11:56:51.711Z,3.20
2018-01-15T11:59:20.842Z,4.27
2018-01-15T12:01:49.247Z,2.10
2018-01-15T12:04:18.764Z,2.90
2018-01-15T12:06:47.148Z,3.73
2018-01-15T12:09:15.531Z,2.73
2018-01-15T12:11:44.047Z,8.03
2018-01-15T12:14:12.464Z,6.77
2018-01-15T12:16:41.800Z,6.90
2018-01-15T12:19:10.340Z,6.50
2018-01-15T12:21:38.699Z,4.43
2018-01-15T12:24:07.086Z,5.37
2018-01-15T12:26:35.499Z,5.50
2018-01-15T12:29:04.840Z,6.43
2018-01-15T12:31:32.890Z,3.33
2018-01-15T12:34:01.255Z,5.47
2018-01-15T12:36:29.766Z,5.23
2018-01-15T12:39:00.436Z,10.97
2018-01-15T12:41:29.024Z,6.80
2018-01-15T12:43:58.186Z,6.83
2018-01-15T12:46:26.571Z,8.57
2018-01-15T12:48:54.947Z,6.83
2018-01-15T12:51:23.336Z,6.27
2018-01-15T12:53:51.723Z,6.83
2018-01-15T12:56:20.128Z,8.00
2018-01-15T12:58:48.524Z,3.90
2018-01-15T13:01:16.924Z,7.83
2018-01-15T13:03:46.068Z,6.37
2018-01-15T13:06:19.576Z,5.63
2018-01-15T13:09:08.301Z,4.93
2018-01-15T13:11:37.653Z,3.27
2018-01-15T13:14:06.025Z,4.60
2018-01-15T13:16:34.388Z,6.10
2018-01-15T13:19:02.783Z,4.73
2018-01-15T13:21:31.151Z,5.73
2018-01-15T13:23:59.577Z,3.87
2018-01-15T13:26:28.020Z,3.50
2018-01-15T13:28:56.388Z,5.30
2018-01-15T13:31:24.770Z,4.53
2018-01-15T13:33:53.504Z,5.17
2018-01-15T13:36:22.100Z,2.83
2018-01-15T13:38:50.495Z,7.27
2018-01-15T13:41:19.159Z,5.00
2018-01-15T13:43:48.387Z,2.43
2018-01-15T13:46:16.788Z,4.90
2018-01-15T13:48:45.349Z,5.17
2018-01-15T13:51:13.722Z,6.33
2018-01-15T13:53:42.094Z,2.03
2018-01-15T13:56:10.846Z,7.80
2018-01-15T13:58:39.284Z,5.03
2018-01-15T14:01:07.656Z,2.93
2018-01-15T14:03:36.103Z,4.27
2018-01-15T14:06:04.469Z,4.00
2018-01-15T14:08:32.850Z,4.17
2018-01-15T14:11:02.284Z,3.63
2018-01-15T14:13:30.673Z,5.97
2018-01-15T14:15:59.059Z,3.90
2018-01-15T14:18:27.756Z,4.33
2018-01-15T14:20:57.056Z,4.10
2018-01-15T14:23:26.290Z,3.53
2018-01-15T14:25:55.556Z,3.60
2018-01-15T14:28:24.555Z,3.60
2018-01-15T14:30:53.962Z,4.00
2018-01-15T14:33:22.395Z,1.63
2018-01-15T14:35:50.800Z,3.80
2018-01-15T14:38:19.357Z,4.40
2018-01-15T14:40:49.271Z,3.20
2018-01-15T14:43:17.657Z,4.57
2018-01-15T14:45:46.025Z,5.30
2018-01-15T14:48:14.446Z,2.90
2018-01-15T14:50:43.573Z,1.70
2018-01-15T14:53:11.764Z,3.07
2018-01-15T14:55:40.516Z,4.03
2018-01-15T14:58:09.646Z,2.23
2018-01-15T15:00:38.090Z,3.23
2018-01-15T15:03:07.355Z,4.83
2018-01-15T15:05:35.721Z,2.70
2018-01-15T15:08:04.134Z,5.43
2018-01-15T15:10:33.293Z,3.60
2018-01-15T15:13:01.720Z,3.20
2018-01-15T15:15:30.956Z,6.50
2018-01-15T15:17:59.384Z,4.80
2018-01-15T15:20:29.246Z,2.77
2018-01-15T15:22:57.624Z,2.80
2018-01-15T15:25:26.820Z,4.70
2018-01-15T15:27:55.323Z,2.23
2018-01-15T15:30:23.989Z,3.67
2018-01-15T15:32:52.384Z,3.80
2018-01-15T15:35:24.935Z,2.93
2018-01-15T15:37:53.319Z,2.40
2018-01-15T15:40:23.202Z,3.47
2018-01-15T15:42:51.399Z,1.40
2018-01-15T15:45:19.784Z,1.80
2018-01-15T15:47:48.156Z,2.40
2018-01-15T15:50:16.524Z,2.20
2018-01-15T15:52:44.908Z,1.80
2018-01-15T15:55:13.398Z,3.23
2018-01-15T15:57:41.770Z,2.10
2018-01-15T16:00:10.183Z,1.93
2018-01-15T16:02:38.561Z,2.93
2018-01-15T16:05:06.960Z,1.67
2018-01-15T16:07:35.393Z,1.63
2018-01-15T16:10:03.426Z,1.20
2018-01-15T16:12:32.552Z,1.50
2018-01-15T16:15:01.241Z,1.80
2018-01-15T16:17:30.547Z,1.63
2018-01-15T16:19:58.923Z,1.27
2018-01-15T16:22:33.280Z,1.10
2018-01-15T16:25:01.687Z,2.53
2018-01-15T16:27:30.815Z,1.93
2018-01-15T16:29:59.211Z,1.43
2018-01-15T16:32:27.575Z,2.63
2018-01-15T16:34:55.952Z,1.53
2018-01-15T16:37:24.352Z,2.20
2018-01-15T16:39:52.739Z,1.57
2018-01-15T16:42:21.111Z,0.90
2018-01-15T16:44:49.565Z,1.20
2018-01-15T16:47:17.949Z,1.70
2018-01-15T16:49:46.416Z,0.70
2018-01-15T16:52:14.796Z,1.40
2018-01-15T16:54:43.169Z,2.50
2018-01-15T16:57:12.683Z,1.33
2018-01-15T16:59:41.188Z,0.70
2018-01-15T17:02:09.272Z,0.50
2018-01-15T17:04:37.834Z,1.00
2018-01-15T17:07:06.292Z,0.97
2018-01-15T17:09:34.705Z,0.63
2018-01-15T17:12:03.098Z,0.83
2018-01-15T17:14:32.170Z,1.13
2018-01-15T17:17:00.563Z,1.37
2018-01-15T17:19:29.020Z,0.67
2018-01-15T17:21:57.423Z,0.57
2018-01-15T17:24:25.785Z,0.60
2018-01-15T17:26:54.225Z,0.70
2018-01-15T17:29:22.903Z,0.70
2018-01-15T17:31:51.283Z,1.90
2018-01-15T17:34:19.643Z,0.70
2018-01-15T17:36:48.835Z,0.80
2018-01-15T17:39:17.056Z,0.60
2018-01-15T17:41:45.431Z,1.37
2018-01-15T17:44:14.956Z,0.70
2018-01-15T17:46:44.459Z,0.70
2018-01-15T17:49:12.879Z,0.50
2018-01-15T17:51:41.860Z,0.70
2018-01-15T17:54:10.249Z,0.50
2018-01-15T17:56:39.391Z,1.10
2018-01-15T17:59:07.771Z,0.60
2018-01-15T18:01:36.246Z,0.50
2018-01-15T18:04:04.620Z,1.37
2018-01-15T18:06:33.019Z,0.60
2018-01-15T18:09:01.380Z,0.50
2018-01-15T18:11:30.890Z,0.57
2018-01-15T18:14:00.415Z,0.70
2018-01-15T18:16:28.792Z,0.60
2018-01-15T18:18:57.172Z,0.50
2018-01-15T18:21:26.594Z,0.70
2018-01-15T18:23:56.836Z,0.47
2018-01-15T18:26:25.995Z,0.80
2018-01-15T18:28:54.429Z,0.67
2018-01-15T18:31:22.809Z,0.50
2018-01-15T18:33:51.627Z,0.70
2018-01-15T18:36:20.061Z,0.50
2018-01-15T18:38:49.197Z,0.50
2018-01-15T18:41:20.333Z,0.60
2018-01-15T18:43:48.740Z,0.70
2018-01-15T18:46:17.107Z,0.50
2018-01-15T18:48:45.860Z,0.47
2018-01-15T18:51:14.235Z,0.50
2018-01-15T18:53:42.601Z,0.50
2018-01-15T18:56:11.760Z,0.60
2018-01-15T18:58:41.104Z,0.57
2018-01-15T19:01:10.269Z,1.03
2018-01-15T19:03:38.676Z,0.50
2018-01-15T19:06:07.877Z,0.50
2018-01-15T19:08:36.325Z,0.70
2018-01-15T19:11:04.724Z,0.60
2018-01-15T19:13:33.877Z,0.60
2018-01-15T19:16:02.262Z,0.77
2018-01-15T19:18:31.461Z,1.00
2018-01-15T19:20:59.841Z,0.67
2018-01-15T19:23:28.244Z,1.93
2018-01-15T19:25:57.410Z,0.50
2018-01-15T19:28:25.587Z,0.50
2018-01-15T19:30:53.762Z,0.73
2018-01-15T19:33:23.212Z,0.90
2018-01-15T19:35:57.000Z,0.70
2018-01-15T19:38:25.968Z,2.83
2018-01-15T19:40:54.144Z,0.67
2018-01-15T19:43:25.119Z,0.70
2018-01-15T19:46:00.182Z,0.40
2018-01-15T19:48:34.323Z,0.40
2018-01-15T19:51:08.181Z,0.40
2018-01-15T19:53:42.284Z,0.50
2018-01-15T19:56:17.145Z,0.50
2018-01-15T19:58:51.120Z,0.30
2018-01-15T20:01:25.783Z,0.50
2018-01-15T20:04:00.490Z,0.40
2018-01-15T20:06:35.494Z,0.50
2018-01-15T20:09:09.556Z,0.50
2018-01-15T20:11:37.800Z,0.30
2018-01-15T20:14:05.976Z,0.40
2018-01-15T20:16:33.918Z,0.97
2018-01-15T20:19:03.072Z,0.60
2018-01-15T20:21:31.465Z,0.87
2018-01-15T20:23:59.940Z,0.30
2018-01-15T20:26:27.999Z,0.60
2018-01-15T20:28:56.366Z,0.30
2018-01-15T20:31:24.779Z,0.40
2018-01-15T20:33:53.155Z,0.83
2018-01-15T20:36:21.540Z,0.50
2018-01-15T20:38:49.662Z,0.50
2018-01-15T20:41:18.172Z,0.93
2018-01-15T20:43:46.545Z,0.40
2018-01-15T20:46:15.187Z,0.40
2018-01-15T20:48:43.630Z,0.30
2018-01-15T20:51:12.017Z,0.40
2018-01-15T20:53:40.721Z,0.50
2018-01-15T20:56:09.871Z,0.30
2018-01-15T20:58:38.375Z,0.50
2018-01-15T21:01:08.567Z,1.13
2018-01-15T21:03:36.928Z,0.30
2018-01-15T21:06:05.614Z,0.60
2018-01-15T21:08:34.012Z,0.30
2018-01-15T21:11:02.376Z,0.73
2018-01-15T21:13:30.774Z,1.13
2018-01-15T21:15:59.170Z,0.43
2018-01-15T21:18:27.548Z,1.83
2018-01-15T21:20:55.922Z,0.87
2018-01-15T21:23:24.340Z,0.40
2018-01-15T21:25:52.716Z,3.03
2018-01-15T21:28:21.154Z,0.40
2018-01-15T21:30:49.860Z,1.40
2018-01-15T21:33:18.216Z,1.10
2018-01-15T21:35:46.595Z,1.33
2018-01-15T21:38:15.026Z,1.03
2018-01-15T21:40:44.229Z,1.10
2018-01-15T21:43:12.592Z,0.70
2018-01-15T21:45:41.762Z,0.70
2018-01-15T21:48:10.138Z,1.20
2018-01-15T21:50:38.524Z,0.77
2018-01-15T21:53:06.909Z,0.80
2018-01-15T21:55:35.854Z,0.83
2018-01-15T21:58:04.219Z,1.20
2018-01-15T22:00:32.922Z,1.50
2018-01-15T22:03:01.477Z,1.27
2018-01-15T22:05:30.649Z,2.90
2018-01-15T22:07:59.804Z,1.30
2018-01-15T22:10:28.274Z,2.23
2018-01-15T22:12:56.676Z,3.90
2018-01-15T22:15:25.068Z,2.10
2018-01-15T22:17:53.462Z,1.60
2018-01-15T22:20:22.616Z,3.13
2018-01-15T22:22:51.255Z,1.60
2018-01-15T22:25:19.715Z,1.47
2018-01-15T22:27:48.870Z,2.80
2018-01-15T22:30:17.628Z,0.70
2018-01-15T22:32:46.004Z,1.27
2018-01-15T22:35:17.446Z,1.73
2018-01-15T22:37:46.131Z,1.60
2018-01-15T22:40:15.264Z,1.63
2018-01-15T22:42:43.637Z,1.57
2018-01-15T22:45:12.109Z,2.07
2018-01-15T22:47:40.497Z,0.80
2018-01-15T22:50:08.861Z,1.37
2018-01-15T22:52:37.288Z,2.07
2018-01-15T22:55:05.673Z,1.30
2018-01-15T22:57:34.041Z,1.20
2018-01-15T23:00:02.822Z,0.83
2018-01-15T23:02:31.187Z,1.33
2018-01-15T23:04:59.568Z,1.47
2018-01-15T23:07:28.196Z,0.87
2018-01-15T23:09:57.340Z,2.63
2018-01-15T23:12:25.720Z,1.07
2018-01-15T23:14:54.120Z,3.13
2018-01-15T23:17:22.492Z,1.70
2018-01-15T23:19:50.863Z,1.13
2018-01-15T23:22:19.061Z,1.60
2018-01-15T23:24:47.438Z,1.40
2018-01-15T23:27:15.809Z,1.53
2018-01-15T23:29:44.188Z,1.60
2018-01-15T23:32:12.587Z,2.40
2018-01-15T23:34:41.758Z,1.63
2018-01-15T23:37:10.164Z,1.23
2018-01-15T23:39:39.296Z,0.80
2018-01-15T23:42:07.678Z,1.33
2018-01-15T23:44:36.076Z,1.23
2018-01-15T23:47:04.439Z,1.03
2018-01-15T23:49:32.817Z,0.90
2018-01-15T23:52:01.584Z,2.20
2018-01-15T23:54:34.864Z,1.10
2018-01-15T23:57:04.385Z,1.80
2018-01-15T23:59:32.755Z,2.00
